METAR Data
IDs: Format: Raw Decoded Include TAF

Data at: 1718 UTC 03 Jun 2020

METAR for:KHLX (Hillsville/Twin Cnty, VA, US)
Text:KHLX 031715Z AUTO 29011G21KT 10SM CLR 27/14 A3001 RMK AO2 T02670136
Temperature: 26.7°C ( 80°F)
Dewpoint: 13.6°C ( 56°F) [RH = 44%]
Pressure (altimeter):30.01 inches Hg (1016.3 mb)
Winds:from the WNW (290 degrees) at 13 MPH (11 knots; 5.7 m/s) gusting to 24 MPH (21 knots; 10.8 m/s)
Visibility:10 or more sm (16+ km)
Ceiling:at least 12,000 feet AGL
Clouds:sky clear below 12,000 feet AGL
QC Flag:automated observation with no human augmentation